sensor_id;sensor_type;location;lat;lon;timestamp;P1;durP1;ratioP1;P2;durP2;ratioP2
8074;SDS011;4080;42.676;23.372;2022-10-16T00:01:13;18.60;;;12.00;;
8074;SDS011;4080;42.676;23.372;2022-10-16T00:03:42;16.73;;;12.00;;
8074;SDS011;4080;42.676;23.372;2022-10-16T00:06:10;18.57;;;12.33;;
8074;SDS011;4080;42.676;23.372;2022-10-16T00:08:37;17.67;;;12.73;;
8074;SDS011;4080;42.676;23.372;2022-10-16T00:11:07;16.17;;;11.70;;
8074;SDS011;4080;42.676;23.372;2022-10-16T00:13:36;15.90;;;12.00;;
8074;SDS011;4080;42.676;23.372;2022-10-16T00:16:04;16.87;;;12.27;;
8074;SDS011;4080;42.676;23.372;2022-10-16T00:18:32;17.93;;;12.20;;
8074;SDS011;4080;42.676;23.372;2022-10-16T00:21:01;16.13;;;12.50;;
8074;SDS011;4080;42.676;23.372;2022-10-16T00:23:30;16.40;;;11.30;;
8074;SDS011;4080;42.676;23.372;2022-10-16T00:25:58;18.37;;;11.90;;
8074;SDS011;4080;42.676;23.372;2022-10-16T00:28:27;17.87;;;12.10;;
8074;SDS011;4080;42.676;23.372;2022-10-16T00:30:54;15.47;;;11.70;;
8074;SDS011;4080;42.676;23.372;2022-10-16T00:33:21;15.57;;;11.90;;
8074;SDS011;4080;42.676;23.372;2022-10-16T00:35:48;14.77;;;11.47;;
8074;SDS011;4080;42.676;23.372;2022-10-16T00:38:15;14.03;;;11.60;;
8074;SDS011;4080;42.676;23.372;2022-10-16T00:40:42;16.37;;;11.80;;
8074;SDS011;4080;42.676;23.372;2022-10-16T00:43:12;16.70;;;10.83;;
8074;SDS011;4080;42.676;23.372;2022-10-16T00:45:41;15.57;;;11.67;;
8074;SDS011;4080;42.676;23.372;2022-10-16T00:48:10;14.67;;;11.40;;
8074;SDS011;4080;42.676;23.372;2022-10-16T00:50:39;14.90;;;11.43;;
8074;SDS011;4080;42.676;23.372;2022-10-16T00:53:09;16.50;;;10.70;;
8074;SDS011;4080;42.676;23.372;2022-10-16T00:55:37;15.37;;;12.03;;
8074;SDS011;4080;42.676;23.372;2022-10-16T00:58:04;13.47;;;10.57;;
8074;SDS011;4080;42.676;23.372;2022-10-16T01:00:31;15.87;;;11.23;;
8074;SDS011;4080;42.676;23.372;2022-10-16T01:03:00;16.23;;;11.17;;
8074;SDS011;4080;42.676;23.372;2022-10-16T01:05:31;18.30;;;12.03;;
8074;SDS011;4080;42.676;23.372;2022-10-16T01:08:04;18.43;;;12.20;;
8074;SDS011;4080;42.676;23.372;2022-10-16T01:10:39;16.53;;;12.20;;
8074;SDS011;4080;42.676;23.372;2022-10-16T01:13:11;13.60;;;11.43;;
8074;SDS011;4080;42.676;23.372;2022-10-16T01:15:44;19.53;;;11.97;;
8074;SDS011;4080;42.676;23.372;2022-10-16T01:18:18;17.40;;;12.57;;
8074;SDS011;4080;42.676;23.372;2022-10-16T01:20:55;16.70;;;11.97;;
8074;SDS011;4080;42.676;23.372;2022-10-16T01:23:28;17.67;;;11.93;;
8074;SDS011;4080;42.676;23.372;2022-10-16T01:26:10;14.40;;;11.17;;
8074;SDS011;4080;42.676;23.372;2022-10-16T01:28:46;15.63;;;11.83;;
8074;SDS011;4080;42.676;23.372;2022-10-16T01:31:18;17.57;;;11.87;;
8074;SDS011;4080;42.676;23.372;2022-10-16T01:33:50;16.90;;;11.43;;
8074;SDS011;4080;42.676;23.372;2022-10-16T01:36:23;21.53;;;12.03;;
8074;SDS011;4080;42.676;23.372;2022-10-16T01:38:54;15.80;;;11.87;;
8074;SDS011;4080;42.676;23.372;2022-10-16T01:41:24;14.27;;;11.70;;
8074;SDS011;4080;42.676;23.372;2022-10-16T01:43:58;17.00;;;11.40;;
8074;SDS011;4080;42.676;23.372;2022-10-16T01:46:31;15.97;;;11.07;;
8074;SDS011;4080;42.676;23.372;2022-10-16T01:49:00;15.90;;;11.33;;
8074;SDS011;4080;42.676;23.372;2022-10-16T01:51:29;14.20;;;11.07;;
8074;SDS011;4080;42.676;23.372;2022-10-16T01:53:57;16.37;;;11.13;;
8074;SDS011;4080;42.676;23.372;2022-10-16T01:56:27;16.30;;;11.27;;
8074;SDS011;4080;42.676;23.372;2022-10-16T01:58:55;14.03;;;11.27;;
8074;SDS011;4080;42.676;23.372;2022-10-16T02:01:27;15.27;;;11.43;;
8074;SDS011;4080;42.676;23.372;2022-10-16T02:03:57;20.63;;;12.77;;
8074;SDS011;4080;42.676;23.372;2022-10-16T02:06:28;22.17;;;11.80;;
8074;SDS011;4080;42.676;23.372;2022-10-16T02:08:55;14.50;;;11.03;;
8074;SDS011;4080;42.676;23.372;2022-10-16T02:11:22;17.87;;;11.03;;
8074;SDS011;4080;42.676;23.372;2022-10-16T02:13:50;16.97;;;10.57;;
8074;SDS011;4080;42.676;23.372;2022-10-16T02:16:22;14.40;;;10.90;;
8074;SDS011;4080;42.676;23.372;2022-10-16T02:18:59;16.40;;;11.13;;
8074;SDS011;4080;42.676;23.372;2022-10-16T02:21:26;14.90;;;11.83;;
8074;SDS011;4080;42.676;23.372;2022-10-16T02:23:57;17.73;;;12.30;;
8074;SDS011;4080;42.676;23.372;2022-10-16T02:26:30;15.27;;;11.77;;
8074;SDS011;4080;42.676;23.372;2022-10-16T02:29:02;16.27;;;11.97;;
8074;SDS011;4080;42.676;23.372;2022-10-16T02:31:36;15.03;;;11.33;;
8074;SDS011;4080;42.676;23.372;2022-10-16T02:34:07;14.47;;;10.47;;
8074;SDS011;4080;42.676;23.372;2022-10-16T02:36:37;14.10;;;11.50;;
8074;SDS011;4080;42.676;23.372;2022-10-16T02:39:05;17.23;;;12.53;;
8074;SDS011;4080;42.676;23.372;2022-10-16T02:41:33;19.93;;;15.07;;
8074;SDS011;4080;42.676;23.372;2022-10-16T02:43:59;20.33;;;14.77;;
8074;SDS011;4080;42.676;23.372;2022-10-16T02:46:26;23.53;;;15.73;;
8074;SDS011;4080;42.676;23.372;2022-10-16T02:48:54;20.07;;;14.33;;
8074;SDS011;4080;42.676;23.372;2022-10-16T02:51:21;20.33;;;13.63;;
8074;SDS011;4080;42.676;23.372;2022-10-16T02:53:48;16.20;;;12.67;;
8074;SDS011;4080;42.676;23.372;2022-10-16T02:56:14;17.17;;;12.70;;
8074;SDS011;4080;42.676;23.372;2022-10-16T02:58:41;20.10;;;13.20;;
8074;SDS011;4080;42.676;23.372;2022-10-16T03:01:08;19.40;;;13.57;;
8074;SDS011;4080;42.676;23.372;2022-10-16T03:03:35;18.53;;;14.40;;
8074;SDS011;4080;42.676;23.372;2022-10-16T03:06:03;21.03;;;13.40;;
8074;SDS011;4080;42.676;23.372;2022-10-16T03:08:30;16.83;;;12.43;;
8074;SDS011;4080;42.676;23.372;2022-10-16T03:10:57;16.10;;;13.03;;
8074;SDS011;4080;42.676;23.372;2022-10-16T03:13:24;18.83;;;13.50;;
8074;SDS011;4080;42.676;23.372;2022-10-16T03:15:51;22.37;;;14.47;;
8074;SDS011;4080;42.676;23.372;2022-10-16T03:18:17;18.43;;;14.27;;
8074;SDS011;4080;42.676;23.372;2022-10-16T03:20:44;20.47;;;13.60;;
8074;SDS011;4080;42.676;23.372;2022-10-16T03:23:12;21.10;;;14.00;;
8074;SDS011;4080;42.676;23.372;2022-10-16T03:25:39;17.27;;;12.77;;
8074;SDS011;4080;42.676;23.372;2022-10-16T03:28:06;16.03;;;12.27;;
8074;SDS011;4080;42.676;23.372;2022-10-16T03:30:33;16.50;;;10.20;;
8074;SDS011;4080;42.676;23.372;2022-10-16T03:33:00;12.93;;;9.63;;
8074;SDS011;4080;42.676;23.372;2022-10-16T03:35:26;17.50;;;10.47;;
8074;SDS011;4080;42.676;23.372;2022-10-16T03:37:53;16.47;;;10.67;;
8074;SDS011;4080;42.676;23.372;2022-10-16T03:40:21;13.33;;;11.07;;
8074;SDS011;4080;42.676;23.372;2022-10-16T03:42:48;17.03;;;11.40;;
8074;SDS011;4080;42.676;23.372;2022-10-16T03:45:15;14.80;;;11.57;;
8074;SDS011;4080;42.676;23.372;2022-10-16T03:47:42;12.90;;;10.20;;
8074;SDS011;4080;42.676;23.372;2022-10-16T03:50:09;16.23;;;10.70;;
8074;SDS011;4080;42.676;23.372;2022-10-16T03:52:35;13.10;;;9.63;;
8074;SDS011;4080;42.676;23.372;2022-10-16T03:55:02;13.83;;;9.67;;
8074;SDS011;4080;42.676;23.372;2022-10-16T03:57:30;16.27;;;9.73;;
8074;SDS011;4080;42.676;23.372;2022-10-16T03:59:57;13.63;;;10.17;;
8074;SDS011;4080;42.676;23.372;2022-10-16T04:02:24;15.67;;;10.63;;
8074;SDS011;4080;42.676;23.372;2022-10-16T04:04:51;15.47;;;9.37;;
8074;SDS011;4080;42.676;23.372;2022-10-16T04:07:18;13.80;;;10.63;;
8074;SDS011;4080;42.676;23.372;2022-10-16T04:09:44;16.70;;;11.37;;
8074;SDS011;4080;42.676;23.372;2022-10-16T04:12:11;22.40;;;12.23;;
8074;SDS011;4080;42.676;23.372;2022-10-16T04:14:39;14.37;;;10.67;;
8074;SDS011;4080;42.676;23.372;2022-10-16T04:17:06;14.30;;;11.03;;
8074;SDS011;4080;42.676;23.372;2022-10-16T04:19:32;18.07;;;12.37;;
8074;SDS011;4080;42.676;23.372;2022-10-16T04:21:59;20.83;;;11.70;;
8074;SDS011;4080;42.676;23.372;2022-10-16T04:24:26;26.73;;;17.63;;
8074;SDS011;4080;42.676;23.372;2022-10-16T04:26:53;31.80;;;23.33;;
8074;SDS011;4080;42.676;23.372;2022-10-16T04:29:19;33.43;;;21.53;;
8074;SDS011;4080;42.676;23.372;2022-10-16T04:31:47;27.03;;;17.13;;
8074;SDS011;4080;42.676;23.372;2022-10-16T04:34:14;21.37;;;15.87;;
8074;SDS011;4080;42.676;23.372;2022-10-16T04:36:41;22.13;;;16.40;;
8074;SDS011;4080;42.676;23.372;2022-10-16T04:39:08;26.03;;;15.77;;
8074;SDS011;4080;42.676;23.372;2022-10-16T04:41:34;22.57;;;15.67;;
8074;SDS011;4080;42.676;23.372;2022-10-16T04:44:01;22.40;;;14.77;;
8074;SDS011;4080;42.676;23.372;2022-10-16T04:46:28;22.80;;;16.20;;
8074;SDS011;4080;42.676;23.372;2022-10-16T04:48:56;18.87;;;14.07;;
8074;SDS011;4080;42.676;23.372;2022-10-16T04:51:23;22.90;;;14.87;;
8074;SDS011;4080;42.676;23.372;2022-10-16T04:53:50;21.70;;;14.40;;
8074;SDS011;4080;42.676;23.372;2022-10-16T04:56:17;18.20;;;14.07;;
8074;SDS011;4080;42.676;23.372;2022-10-16T04:58:44;25.07;;;14.80;;
8074;SDS011;4080;42.676;23.372;2022-10-16T05:01:11;17.23;;;13.37;;
8074;SDS011;4080;42.676;23.372;2022-10-16T05:03:37;18.70;;;13.07;;
8074;SDS011;4080;42.676;23.372;2022-10-16T05:06:06;19.90;;;14.07;;
8074;SDS011;4080;42.676;23.372;2022-10-16T05:08:33;33.33;;;24.30;;
8074;SDS011;4080;42.676;23.372;2022-10-16T05:11:00;30.30;;;22.50;;
8074;SDS011;4080;42.676;23.372;2022-10-16T05:13:27;19.33;;;13.57;;
8074;SDS011;4080;42.676;23.372;2022-10-16T05:15:54;17.77;;;13.77;;
8074;SDS011;4080;42.676;23.372;2022-10-16T05:18:22;14.87;;;13.03;;
8074;SDS011;4080;42.676;23.372;2022-10-16T05:20:48;17.17;;;10.93;;
8074;SDS011;4080;42.676;23.372;2022-10-16T05:23:17;18.67;;;12.70;;
8074;SDS011;4080;42.676;23.372;2022-10-16T05:25:43;24.00;;;16.93;;
8074;SDS011;4080;42.676;23.372;2022-10-16T05:28:18;21.57;;;15.93;;
8074;SDS011;4080;42.676;23.372;2022-10-16T05:30:45;24.87;;;16.43;;
8074;SDS011;4080;42.676;23.372;2022-10-16T05:33:12;20.40;;;15.57;;
8074;SDS011;4080;42.676;23.372;2022-10-16T05:35:38;25.03;;;17.00;;
8074;SDS011;4080;42.676;23.372;2022-10-16T05:38:05;21.30;;;16.00;;
8074;SDS011;4080;42.676;23.372;2022-10-16T05:40:33;23.13;;;16.37;;
8074;SDS011;4080;42.676;23.372;2022-10-16T05:43:00;22.97;;;13.53;;
8074;SDS011;4080;42.676;23.372;2022-10-16T05:45:26;20.60;;;13.73;;
8074;SDS011;4080;42.676;23.372;2022-10-16T05:47:53;22.13;;;14.50;;
8074;SDS011;4080;42.676;23.372;2022-10-16T05:50:20;19.23;;;13.33;;
8074;SDS011;4080;42.676;23.372;2022-10-16T05:52:47;16.07;;;12.73;;
8074;SDS011;4080;42.676;23.372;2022-10-16T05:55:13;13.60;;;11.80;;
8074;SDS011;4080;42.676;23.372;2022-10-16T05:57:42;20.93;;;13.10;;
8074;SDS011;4080;42.676;23.372;2022-10-16T06:00:09;14.90;;;12.33;;
8074;SDS011;4080;42.676;23.372;2022-10-16T06:02:36;13.97;;;12.47;;
8074;SDS011;4080;42.676;23.372;2022-10-16T06:05:03;19.80;;;14.27;;
8074;SDS011;4080;42.676;23.372;2022-10-16T06:07:33;22.20;;;17.37;;
8074;SDS011;4080;42.676;23.372;2022-10-16T06:10:00;20.13;;;16.57;;
8074;SDS011;4080;42.676;23.372;2022-10-16T06:12:27;18.17;;;15.87;;
8074;SDS011;4080;42.676;23.372;2022-10-16T06:14:55;20.90;;;15.73;;
8074;SDS011;4080;42.676;23.372;2022-10-16T06:17:22;23.33;;;15.53;;
8074;SDS011;4080;42.676;23.372;2022-10-16T06:19:49;18.20;;;13.77;;
8074;SDS011;4080;42.676;23.372;2022-10-16T06:22:16;14.73;;;12.80;;
8074;SDS011;4080;42.676;23.372;2022-10-16T06:24:42;16.93;;;14.00;;
8074;SDS011;4080;42.676;23.372;2022-10-16T06:27:09;14.00;;;12.50;;
8074;SDS011;4080;42.676;23.372;2022-10-16T06:29:36;14.57;;;10.97;;
8074;SDS011;4080;42.676;23.372;2022-10-16T06:32:04;14.00;;;10.67;;
8074;SDS011;4080;42.676;23.372;2022-10-16T06:34:31;15.77;;;11.00;;
8074;SDS011;4080;42.676;23.372;2022-10-16T06:36:57;11.27;;;10.07;;
8074;SDS011;4080;42.676;23.372;2022-10-16T06:39:24;16.80;;;9.30;;
8074;SDS011;4080;42.676;23.372;2022-10-16T06:41:51;11.10;;;9.50;;
8074;SDS011;4080;42.676;23.372;2022-10-16T06:44:17;22.27;;;10.17;;
8074;SDS011;4080;42.676;23.372;2022-10-16T06:46:44;12.37;;;9.30;;
8074;SDS011;4080;42.676;23.372;2022-10-16T06:49:12;13.33;;;10.30;;
8074;SDS011;4080;42.676;23.372;2022-10-16T06:51:46;11.97;;;10.30;;
8074;SDS011;4080;42.676;23.372;2022-10-16T06:54:14;14.30;;;9.60;;
8074;SDS011;4080;42.676;23.372;2022-10-16T07:00:03;11.27;;;8.20;;
8074;SDS011;4080;42.676;23.372;2022-10-16T07:02:31;10.87;;;7.87;;
8074;SDS011;4080;42.676;23.372;2022-10-16T07:04:59;12.50;;;7.40;;
8074;SDS011;4080;42.676;23.372;2022-10-16T07:07:26;9.83;;;7.50;;
8074;SDS011;4080;42.676;23.372;2022-10-16T07:09:52;15.80;;;7.97;;
8074;SDS011;4080;42.676;23.372;2022-10-16T07:12:19;8.40;;;7.60;;
8074;SDS011;4080;42.676;23.372;2022-10-16T07:14:46;8.77;;;7.60;;
8074;SDS011;4080;42.676;23.372;2022-10-16T07:17:13;10.67;;;6.90;;
8074;SDS011;4080;42.676;23.372;2022-10-16T07:19:39;9.07;;;7.00;;
8074;SDS011;4080;42.676;23.372;2022-10-16T07:22:07;11.17;;;7.67;;
8074;SDS011;4080;42.676;23.372;2022-10-16T07:24:34;12.40;;;7.23;;
8074;SDS011;4080;42.676;23.372;2022-10-16T07:27:01;10.00;;;6.87;;
8074;SDS011;4080;42.676;23.372;2022-10-16T07:29:27;10.40;;;7.57;;
8074;SDS011;4080;42.676;23.372;2022-10-16T07:31:54;9.43;;;6.77;;
8074;SDS011;4080;42.676;23.372;2022-10-16T07:34:21;7.50;;;6.37;;
8074;SDS011;4080;42.676;23.372;2022-10-16T07:36:48;9.17;;;6.67;;
8074;SDS011;4080;42.676;23.372;2022-10-16T07:39:17;9.50;;;7.40;;
8074;SDS011;4080;42.676;23.372;2022-10-16T07:41:44;13.40;;;7.70;;
8074;SDS011;4080;42.676;23.372;2022-10-16T07:44:11;8.87;;;6.77;;
8074;SDS011;4080;42.676;23.372;2022-10-16T07:46:37;8.13;;;6.60;;
8074;SDS011;4080;42.676;23.372;2022-10-16T07:49:04;11.00;;;7.53;;
8074;SDS011;4080;42.676;23.372;2022-10-16T07:51:31;10.30;;;7.03;;
8074;SDS011;4080;42.676;23.372;2022-10-16T07:53:58;8.77;;;6.83;;
8074;SDS011;4080;42.676;23.372;2022-10-16T07:56:26;7.87;;;6.60;;
8074;SDS011;4080;42.676;23.372;2022-10-16T07:58:53;9.73;;;6.83;;
8074;SDS011;4080;42.676;23.372;2022-10-16T08:01:21;9.27;;;6.30;;
8074;SDS011;4080;42.676;23.372;2022-10-16T08:03:48;9.03;;;5.93;;
8074;SDS011;4080;42.676;23.372;2022-10-16T08:06:16;6.97;;;6.17;;
8074;SDS011;4080;42.676;23.372;2022-10-16T08:08:44;8.80;;;6.30;;
8074;SDS011;4080;42.676;23.372;2022-10-16T08:11:10;7.37;;;6.33;;
8074;SDS011;4080;42.676;23.372;2022-10-16T08:13:38;9.07;;;6.83;;
8074;SDS011;4080;42.676;23.372;2022-10-16T08:16:05;7.70;;;6.80;;
8074;SDS011;4080;42.676;23.372;2022-10-16T08:18:34;11.73;;;8.23;;
8074;SDS011;4080;42.676;23.372;2022-10-16T08:21:02;16.93;;;8.00;;
8074;SDS011;4080;42.676;23.372;2022-10-16T08:23:29;7.37;;;6.43;;
8074;SDS011;4080;42.676;23.372;2022-10-16T08:25:56;12.63;;;6.87;;
8074;SDS011;4080;42.676;23.372;2022-10-16T08:28:30;7.03;;;6.37;;
8074;SDS011;4080;42.676;23.372;2022-10-16T08:31:05;7.33;;;6.60;;
8074;SDS011;4080;42.676;23.372;2022-10-16T08:33:33;9.13;;;5.80;;
8074;SDS011;4080;42.676;23.372;2022-10-16T08:36:01;8.63;;;5.33;;
8074;SDS011;4080;42.676;23.372;2022-10-16T08:38:28;6.67;;;5.00;;
8074;SDS011;4080;42.676;23.372;2022-10-16T08:40:55;7.93;;;5.43;;
8074;SDS011;4080;42.676;23.372;2022-10-16T08:43:43;17.47;;;6.40;;
8074;SDS011;4080;42.676;23.372;2022-10-16T08:46:32;6.63;;;5.10;;
8074;SDS011;4080;42.676;23.372;2022-10-16T08:49:06;5.73;;;4.97;;
8074;SDS011;4080;42.676;23.372;2022-10-16T08:51:39;9.47;;;4.63;;
8074;SDS011;4080;42.676;23.372;2022-10-16T08:54:06;9.10;;;5.23;;
8074;SDS011;4080;42.676;23.372;2022-10-16T08:56:46;5.70;;;5.07;;
8074;SDS011;4080;42.676;23.372;2022-10-16T08:59:13;11.90;;;5.03;;
8074;SDS011;4080;42.676;23.372;2022-10-16T09:01:43;5.87;;;4.20;;
8074;SDS011;4080;42.676;23.372;2022-10-16T09:07:20;5.43;;;3.50;;
8074;SDS011;4080;42.676;23.372;2022-10-16T09:09:54;4.43;;;3.80;;
8074;SDS011;4080;42.676;23.372;2022-10-16T09:12:29;4.93;;;4.23;;
8074;SDS011;4080;42.676;23.372;2022-10-16T09:15:07;4.83;;;4.13;;
8074;SDS011;4080;42.676;23.372;2022-10-16T09:17:48;4.53;;;4.10;;
8074;SDS011;4080;42.676;23.372;2022-10-16T09:20:26;8.00;;;4.60;;
8074;SDS011;4080;42.676;23.372;2022-10-16T09:23:07;5.30;;;4.07;;
8074;SDS011;4080;42.676;23.372;2022-10-16T09:25:38;8.20;;;4.40;;
8074;SDS011;4080;42.676;23.372;2022-10-16T09:28:07;7.87;;;4.60;;
8074;SDS011;4080;42.676;23.372;2022-10-16T09:30:35;8.00;;;4.20;;
8074;SDS011;4080;42.676;23.372;2022-10-16T09:33:05;6.80;;;4.10;;
8074;SDS011;4080;42.676;23.372;2022-10-16T09:35:35;6.70;;;4.50;;
8074;SDS011;4080;42.676;23.372;2022-10-16T09:38:03;4.60;;;4.20;;
8074;SDS011;4080;42.676;23.372;2022-10-16T09:40:31;6.00;;;3.93;;
8074;SDS011;4080;42.676;23.372;2022-10-16T09:43:06;4.10;;;3.70;;
8074;SDS011;4080;42.676;23.372;2022-10-16T09:45:53;5.30;;;3.73;;
8074;SDS011;4080;42.676;23.372;2022-10-16T09:48:22;5.80;;;3.87;;
8074;SDS011;4080;42.676;23.372;2022-10-16T09:50:58;5.40;;;4.30;;
8074;SDS011;4080;42.676;23.372;2022-10-16T09:53:26;4.40;;;4.00;;
8074;SDS011;4080;42.676;23.372;2022-10-16T09:56:04;5.73;;;4.03;;
8074;SDS011;4080;42.676;23.372;2022-10-16T09:58:31;4.63;;;4.10;;
8074;SDS011;4080;42.676;23.372;2022-10-16T10:00:59;5.43;;;4.03;;
8074;SDS011;4080;42.676;23.372;2022-10-16T10:03:35;6.00;;;3.63;;
8074;SDS011;4080;42.676;23.372;2022-10-16T10:06:06;5.97;;;4.07;;
8074;SDS011;4080;42.676;23.372;2022-10-16T10:08:52;4.57;;;3.77;;
8074;SDS011;4080;42.676;23.372;2022-10-16T10:14:06;4.67;;;3.73;;
8074;SDS011;4080;42.676;23.372;2022-10-16T10:16:38;5.90;;;3.73;;
8074;SDS011;4080;42.676;23.372;2022-10-16T10:19:09;9.27;;;3.97;;
8074;SDS011;4080;42.676;23.372;2022-10-16T10:21:40;4.30;;;3.90;;
8074;SDS011;4080;42.676;23.372;2022-10-16T10:24:09;5.63;;;3.63;;
8074;SDS011;4080;42.676;23.372;2022-10-16T10:26:37;4.77;;;4.27;;
8074;SDS011;4080;42.676;23.372;2022-10-16T10:29:06;7.00;;;4.63;;
8074;SDS011;4080;42.676;23.372;2022-10-16T10:31:44;7.30;;;6.27;;
8074;SDS011;4080;42.676;23.372;2022-10-16T10:34:22;8.60;;;4.60;;
8074;SDS011;4080;42.676;23.372;2022-10-16T10:37:01;4.20;;;3.80;;
8074;SDS011;4080;42.676;23.372;2022-10-16T10:39:35;5.43;;;4.33;;
8074;SDS011;4080;42.676;23.372;2022-10-16T10:42:13;5.03;;;4.53;;
8074;SDS011;4080;42.676;23.372;2022-10-16T10:47:42;8.03;;;4.20;;
8074;SDS011;4080;42.676;23.372;2022-10-16T10:50:20;4.63;;;4.17;;
8074;SDS011;4080;42.676;23.372;2022-10-16T10:52:58;6.47;;;4.33;;
8074;SDS011;4080;42.676;23.372;2022-10-16T10:55:31;4.57;;;3.90;;
8074;SDS011;4080;42.676;23.372;2022-10-16T10:58:13;6.33;;;3.60;;
8074;SDS011;4080;42.676;23.372;2022-10-16T11:01:03;6.10;;;3.87;;
8074;SDS011;4080;42.676;23.372;2022-10-16T11:03:39;4.20;;;3.80;;
8074;SDS011;4080;42.676;23.372;2022-10-16T11:06:19;4.10;;;3.27;;
8074;SDS011;4080;42.676;23.372;2022-10-16T11:08:50;4.63;;;3.53;;
8074;SDS011;4080;42.676;23.372;2022-10-16T11:11:20;6.00;;;3.80;;
8074;SDS011;4080;42.676;23.372;2022-10-16T11:13:52;4.90;;;4.10;;
8074;SDS011;4080;42.676;23.372;2022-10-16T11:16:23;4.83;;;4.07;;
8074;SDS011;4080;42.676;23.372;2022-10-16T11:18:55;7.33;;;3.77;;
8074;SDS011;4080;42.676;23.372;2022-10-16T11:21:29;4.53;;;3.33;;
8074;SDS011;4080;42.676;23.372;2022-10-16T11:24:01;4.77;;;3.50;;
8074;SDS011;4080;42.676;23.372;2022-10-16T11:26:39;10.00;;;5.83;;
8074;SDS011;4080;42.676;23.372;2022-10-16T11:29:10;6.07;;;4.37;;
8074;SDS011;4080;42.676;23.372;2022-10-16T11:31:45;5.17;;;4.10;;
8074;SDS011;4080;42.676;23.372;2022-10-16T11:34:17;4.57;;;4.10;;
8074;SDS011;4080;42.676;23.372;2022-10-16T11:36:50;4.60;;;3.30;;
8074;SDS011;4080;42.676;23.372;2022-10-16T11:39:22;3.93;;;3.63;;
8074;SDS011;4080;42.676;23.372;2022-10-16T11:41:53;3.37;;;3.07;;
8074;SDS011;4080;42.676;23.372;2022-10-16T11:44:32;4.03;;;3.17;;
8074;SDS011;4080;42.676;23.372;2022-10-16T11:47:08;4.93;;;3.40;;
8074;SDS011;4080;42.676;23.372;2022-10-16T11:49:42;4.00;;;3.17;;
8074;SDS011;4080;42.676;23.372;2022-10-16T11:52:15;5.27;;;3.90;;
8074;SDS011;4080;42.676;23.372;2022-10-16T11:54:47;6.40;;;3.67;;
8074;SDS011;4080;42.676;23.372;2022-10-16T11:57:21;8.20;;;3.50;;
8074;SDS011;4080;42.676;23.372;2022-10-16T11:59:52;5.63;;;3.47;;
8074;SDS011;4080;42.676;23.372;2022-10-16T12:02:33;5.03;;;3.40;;
8074;SDS011;4080;42.676;23.372;2022-10-16T12:05:11;5.40;;;3.40;;
8074;SDS011;4080;42.676;23.372;2022-10-16T12:07:50;5.43;;;3.37;;
8074;SDS011;4080;42.676;23.372;2022-10-16T12:10:28;3.90;;;3.27;;
8074;SDS011;4080;42.676;23.372;2022-10-16T12:12:57;3.60;;;3.27;;
8074;SDS011;4080;42.676;23.372;2022-10-16T12:15:24;5.67;;;3.50;;
8074;SDS011;4080;42.676;23.372;2022-10-16T12:17:53;3.47;;;3.17;;
8074;SDS011;4080;42.676;23.372;2022-10-16T12:20:21;5.10;;;3.37;;
8074;SDS011;4080;42.676;23.372;2022-10-16T12:22:54;4.03;;;3.10;;
8074;SDS011;4080;42.676;23.372;2022-10-16T12:25:23;3.77;;;3.07;;
8074;SDS011;4080;42.676;23.372;2022-10-16T12:27:57;6.20;;;3.40;;
8074;SDS011;4080;42.676;23.372;2022-10-16T12:30:27;5.20;;;3.57;;
8074;SDS011;4080;42.676;23.372;2022-10-16T12:32:56;6.17;;;5.27;;
8074;SDS011;4080;42.676;23.372;2022-10-16T12:35:27;7.50;;;3.47;;
8074;SDS011;4080;42.676;23.372;2022-10-16T12:38:05;3.40;;;3.10;;
8074;SDS011;4080;42.676;23.372;2022-10-16T12:40:35;3.40;;;2.97;;
8074;SDS011;4080;42.676;23.372;2022-10-16T12:43:24;4.13;;;3.50;;
8074;SDS011;4080;42.676;23.372;2022-10-16T12:46:00;6.07;;;3.27;;
8074;SDS011;4080;42.676;23.372;2022-10-16T12:48:28;5.20;;;4.27;;
8074;SDS011;4080;42.676;23.372;2022-10-16T12:50:56;4.33;;;3.90;;
8074;SDS011;4080;42.676;23.372;2022-10-16T12:53:24;4.30;;;3.67;;
8074;SDS011;4080;42.676;23.372;2022-10-16T12:55:58;6.13;;;3.70;;
8074;SDS011;4080;42.676;23.372;2022-10-16T12:58:39;6.97;;;3.73;;
8074;SDS011;4080;42.676;23.372;2022-10-16T13:01:29;9.17;;;6.97;;
8074;SDS011;4080;42.676;23.372;2022-10-16T13:04:13;4.03;;;3.27;;
8074;SDS011;4080;42.676;23.372;2022-10-16T13:07:00;4.13;;;2.80;;
8074;SDS011;4080;42.676;23.372;2022-10-16T13:09:45;5.07;;;2.97;;
8074;SDS011;4080;42.676;23.372;2022-10-16T13:12:35;3.37;;;3.07;;
8074;SDS011;4080;42.676;23.372;2022-10-16T13:15:19;3.73;;;3.10;;
8074;SDS011;4080;42.676;23.372;2022-10-16T13:17:54;4.30;;;3.00;;
8074;SDS011;4080;42.676;23.372;2022-10-16T13:20:31;3.87;;;3.20;;
8074;SDS011;4080;42.676;23.372;2022-10-16T13:23:09;3.57;;;3.20;;
8074;SDS011;4080;42.676;23.372;2022-10-16T13:25:48;5.53;;;3.27;;
8074;SDS011;4080;42.676;23.372;2022-10-16T13:28:28;5.50;;;3.27;;
8074;SDS011;4080;42.676;23.372;2022-10-16T13:30:59;8.00;;;3.40;;
8074;SDS011;4080;42.676;23.372;2022-10-16T13:33:30;6.10;;;3.30;;
8074;SDS011;4080;42.676;23.372;2022-10-16T13:35:58;4.43;;;3.40;;
8074;SDS011;4080;42.676;23.372;2022-10-16T13:38:26;4.97;;;3.17;;
8074;SDS011;4080;42.676;23.372;2022-10-16T13:40:56;4.10;;;3.17;;
8074;SDS011;4080;42.676;23.372;2022-10-16T13:43:25;5.97;;;4.73;;
8074;SDS011;4080;42.676;23.372;2022-10-16T13:45:56;3.90;;;3.50;;
8074;SDS011;4080;42.676;23.372;2022-10-16T13:48:24;5.30;;;3.37;;
8074;SDS011;4080;42.676;23.372;2022-10-16T13:50:58;3.53;;;3.10;;
8074;SDS011;4080;42.676;23.372;2022-10-16T13:53:26;3.70;;;3.40;;
8074;SDS011;4080;42.676;23.372;2022-10-16T13:55:53;4.53;;;3.13;;
8074;SDS011;4080;42.676;23.372;2022-10-16T13:58:21;6.53;;;3.37;;
8074;SDS011;4080;42.676;23.372;2022-10-16T14:00:54;6.50;;;3.50;;
8074;SDS011;4080;42.676;23.372;2022-10-16T14:03:23;5.37;;;3.20;;
8074;SDS011;4080;42.676;23.372;2022-10-16T14:05:51;4.77;;;3.20;;
8074;SDS011;4080;42.676;23.372;2022-10-16T14:08:20;7.37;;;3.27;;
8074;SDS011;4080;42.676;23.372;2022-10-16T14:10:49;5.90;;;3.00;;
8074;SDS011;4080;42.676;23.372;2022-10-16T14:13:18;4.93;;;3.40;;
8074;SDS011;4080;42.676;23.372;2022-10-16T14:15:48;3.47;;;3.10;;
8074;SDS011;4080;42.676;23.372;2022-10-16T14:18:20;5.77;;;3.10;;
8074;SDS011;4080;42.676;23.372;2022-10-16T14:20:48;5.10;;;3.00;;
8074;SDS011;4080;42.676;23.372;2022-10-16T14:23:19;4.63;;;2.80;;
8074;SDS011;4080;42.676;23.372;2022-10-16T14:25:48;3.63;;;3.07;;
8074;SDS011;4080;42.676;23.372;2022-10-16T14:28:15;5.57;;;3.20;;
8074;SDS011;4080;42.676;23.372;2022-10-16T14:30:51;5.97;;;3.00;;
8074;SDS011;4080;42.676;23.372;2022-10-16T14:33:21;4.27;;;3.37;;
8074;SDS011;4080;42.676;23.372;2022-10-16T14:36:00;3.63;;;2.70;;
8074;SDS011;4080;42.676;23.372;2022-10-16T14:38:29;4.23;;;3.33;;
8074;SDS011;4080;42.676;23.372;2022-10-16T14:40:57;6.07;;;3.43;;
8074;SDS011;4080;42.676;23.372;2022-10-16T14:43:27;3.90;;;3.50;;
8074;SDS011;4080;42.676;23.372;2022-10-16T14:46:00;4.10;;;3.70;;
8074;SDS011;4080;42.676;23.372;2022-10-16T14:48:29;7.40;;;5.97;;
8074;SDS011;4080;42.676;23.372;2022-10-16T14:50:56;4.50;;;3.10;;
8074;SDS011;4080;42.676;23.372;2022-10-16T14:53:37;4.33;;;3.47;;
8074;SDS011;4080;42.676;23.372;2022-10-16T14:56:16;4.20;;;3.20;;
8074;SDS011;4080;42.676;23.372;2022-10-16T14:58:45;4.20;;;3.33;;
8074;SDS011;4080;42.676;23.372;2022-10-16T15:01:13;5.07;;;3.80;;
8074;SDS011;4080;42.676;23.372;2022-10-16T15:03:40;6.13;;;4.00;;
8074;SDS011;4080;42.676;23.372;2022-10-16T15:06:08;8.80;;;4.27;;
8074;SDS011;4080;42.676;23.372;2022-10-16T15:08:36;5.90;;;4.17;;
8074;SDS011;4080;42.676;23.372;2022-10-16T15:11:03;81.50;;;67.53;;
8074;SDS011;4080;42.676;23.372;2022-10-16T15:13:30;30.63;;;22.80;;
8074;SDS011;4080;42.676;23.372;2022-10-16T15:15:57;7.63;;;5.70;;
8074;SDS011;4080;42.676;23.372;2022-10-16T15:18:25;12.87;;;7.33;;